KMNI

Santee Cooper Regional Airport

Manning, South Carolina, USA
METAR KMNI 222035Z AUTO 00000KT 10SM CLR 17/03 A3026 RMK AO2
Observed Flight Rules
Oct-22 @ 20:35 UTC (12 minutes ago) Visual Flight Rules
Visibility Clouds
10 miles
  • Clear skies
Temperatures Readings
Current 17°C / 63°F
Dewpoint 3°C / 37°F
Humidity 39%
Altimeter 30.26" Hg
Pressure 1025 hPa
Elevation 32
METAR KMNI 222035Z AUTO 00000KT 10SM CLR 17/03 A3026 RMK AO2
Observed Flight Rules
Oct-22 @ 20:35 UTC
(12 minutes ago)
VFR
Clouds
  • Clear skies
Temperature Dewpoint
17°C / 63°F 3°C / 37°F
Humidity Altimeter Pressure
39% 30.26" Hg 1025 hPa